Latest Weather Observations for Warragul (Nilma North)

IDV60801

Issued at 4:02 pm EST Thursday 28 May 2015 (issued every 30 minutes, with the page automatically refreshed every 10 minutes)

About weather observations | Map of weather stations | Latest weather observations for VIC | Other Formats
Station Details ID: 085313 Name: NILMA NORTH (WARRAGUL) Lat: -38.13 Lon: 145.99 Height: 134.11 m
Data from the previous 72 hours. | See also: Recent months for locations in Victoria
Date/Time
EST
Temp
°C
App
Temp
°C
Dew
Point
Rel
Hum
%
Delta-T
°C
Wind Press
QNH
hPa
Press
MSL
hPa
Rain
since 9 am
mm
Dir
 
Spd
km/h
Gust
km/h
Spd
kts
Gust
kts
28/04:00pm 17.0 13.6 9.2 60 4.1 NW 17 32 9 17 1013.4 1013.5 0.0
28/03:30pm 17.1 14.7 8.5 57 4.4 WNW 11 19 6 10 1013.7 1013.7 0.0
28/03:00pm 18.9 14.7 8.3 50 5.5 NW 20 33 11 18 1013.6 1013.6 0.0
28/02:30pm 19.2 14.7 8.5 50 5.6 NW 22 35 12 19 1013.4 1013.5 0.0
28/02:00pm 19.0 14.2 8.9 52 5.3 NW 24 43 13 23 1013.6 1013.6 0.0
28/01:30pm 19.0 15.2 9.8 55 4.9 NNW 20 37 11 20 1013.9 1013.9 0.0
28/01:00pm 19.0 15.6 10.6 58 4.6 NNW 19 32 10 17 1014.4 1014.4 0.0
28/12:30pm 18.2 14.7 10.1 59 4.3 NNW 19 28 10 15 1014.9 1014.9 0.0
28/12:00pm 18.6 14.8 9.7 56 4.7 NW 20 33 11 18 1015.3 1015.3 0.0
28/11:30am 18.4 14.3 10.0 58 4.5 NNW 22 37 12 20 1015.9 1015.9 0.0
28/11:00am 18.2 15.1 10.3 60 4.2 NW 17 30 9 16 1016.4 1016.4 0.0
28/10:30am 16.7 16.3 11.0 69 3.1 NNW 4 6 2 3 1016.8 1016.9 0.0
28/10:00am 14.6 14.7 11.4 81 1.7 WSW 2 4 1 2 1016.8 1016.9 0.0
28/09:30am 13.8 13.0 9.6 76 2.2 WSW 4 6 2 3 1016.9 1017.0 0.0
28/09:00am 13.1 11.6 8.6 74 2.3 WSW 6 9 3 5 1016.9 1017.0 0.0
28/08:30am 11.2 9.9 7.7 79 1.7 W 4 11 2 6 1017.0 1017.1 0.0
28/08:00am 10.2 8.1 6.5 78 1.7 NW 7 15 4 8 1017.0 1017.1 0.0
28/07:46am 12.8 11.6 10.3 85 1.3 N 7 15 4 8 1017.0 1017.1 0.0
28/07:30am 7.8 6.3 6.6 92 0.6 NW 4 9 2 5 1017.1 1017.2 0.0
28/07:00am 10.7 9.1 8.8 88 0.9 NW 7 13 4 7 1016.9 1017.0 0.0
28/06:30am 7.1 6.2 6.0 93 0.5 CALM 0 0 0 0 1016.9 1017.0 0.0
28/06:00am 7.8 6.6 6.4 91 0.6 SSW 2 6 1 3 1016.8 1016.9 0.0
28/05:30am 9.5 8.1 7.4 87 1.0 WSW 4 9 2 5 1016.8 1016.9 0.0
28/05:00am 13.2 11.8 8.9 75 2.2 N 6 15 3 8 1016.7 1016.8 0.0
28/04:30am 13.7 11.8 9.0 73 2.4 N 9 19 5 10 1016.7 1016.8 0.0
28/04:00am 13.9 12.0 8.9 72 2.5 N 9 17 5 9 1016.8 1016.9 0.0
28/03:30am 13.3 12.0 9.2 76 2.1 N 6 15 3 8 1016.9 1017.0 0.0
28/03:00am 11.8 10.6 9.5 86 1.2 N 6 13 3 7 1017.5 1017.6 0.0
28/02:30am 11.2 10.0 8.1 81 1.5 WSW 4 6 2 3 1017.9 1018.0 0.0
28/02:00am 12.0 10.6 8.7 80 1.6 NW 6 15 3 8 1017.9 1018.0 0.0
28/01:30am 12.1 11.0 8.4 78 1.8 WNW 4 7 2 4 1017.8 1017.9 0.0
28/01:00am 13.5 12.2 9.2 75 2.2 NW 6 20 3 11 1017.7 1017.8 0.0
28/12:30am 13.8 12.3 9.3 74 2.3 NNW 7 13 4 7 1017.9 1018.0 0.0
28/12:00am 14.6 12.4 9.4 71 2.7 NNW 11 19 6 10 1018.2 1018.3 0.0
 
Date/Time
EST
Temp
°C
App
Temp
°C
Dew
Point
Rel
Hum
%
Delta-T
°C
Wind Press
QNH
hPa
Press
MSL
hPa
Rain
since 9 am
mm
Dir
 
Spd
km/h
Gust
km/h
Spd
kts
Gust
kts
27/11:30pm 14.3 12.6 9.7 74 2.4 NW 9 17 5 9 1018.3 1018.4 0.0
27/11:00pm 13.6 12.1 9.1 74 2.3 NNW 7 15 4 8 1018.2 1018.3 0.0
27/10:30pm 12.8 11.7 9.8 82 1.5 N 6 11 3 6 1018.5 1018.6 0.0
27/10:00pm 8.8 7.8 7.4 91 0.7 ENE 2 4 1 2 1018.7 1018.8 0.0
27/09:30pm 8.4 7.6 6.7 89 0.8 CALM 0 0 0 0 1018.8 1018.9 0.0
27/09:00pm 10.0 9.1 7.6 85 1.2 N 2 6 1 3 1018.8 1018.9 0.0
27/08:30pm 10.6 9.5 6.9 78 1.8 NNW 2 4 1 2 1019.0 1019.1 0.0
27/08:00pm 13.5 12.1 8.8 73 2.4 N 6 9 3 5 1019.0 1019.1 0.0
27/07:30pm 13.4 12.0 8.9 74 2.3 NNW 6 9 3 5 1019.0 1019.1 0.0
27/07:00pm 13.1 11.7 8.8 75 2.2 NNW 6 9 3 5 1018.9 1019.0 0.0
27/06:30pm 12.5 11.9 9.1 80 1.7 WNW 2 6 1 3 1018.6 1018.7 0.0
27/06:00pm 12.8 12.2 9.1 78 1.9 WSW 2 4 1 2 1018.4 1018.5 0.0
27/05:30pm 14.5 13.2 9.3 71 2.7 NNW 6 9 3 5 1018.1 1018.2 0.0
27/05:00pm 14.9 13.1 9.5 70 2.8 NNW 9 15 5 8 1017.8 1017.9 0.0
27/04:30pm 16.0 14.7 9.9 67 3.2 NNW 7 13 4 7 1017.8 1017.9 0.0
27/04:00pm 17.2 15.9 10.1 63 3.8 NW 7 15 4 8 1017.8 1017.9 0.0
27/03:30pm 16.1 16.8 12.1 77 2.2 CALM 0 0 0 0 1017.8 1017.9 0.0
27/03:00pm 15.1 14.8 11.3 78 2.0 ESE 4 7 2 4 1017.9 1018.0 0.0
27/02:30pm 14.9 15.0 11.5 80 1.8 ESE 2 4 1 2 1017.9 1018.0 0.0
27/02:00pm 14.4 14.1 11.4 82 1.6 SE 4 6 2 3 1018.1 1018.2 0.0
27/01:30pm 14.4 13.9 10.8 79 1.9 SE 4 6 2 3 1018.3 1018.4 0.0
27/01:00pm 14.4 14.2 10.4 77 2.1 SE 2 4 1 2 1018.9 1019.0 0.0
27/12:30pm 14.4 13.9 10.6 78 2.0 S 4 6 2 3 1019.1 1019.2 0.0
27/12:00pm 13.5 12.5 10.3 81 1.7 ESE 6 7 3 4 1019.5 1019.6 0.0
27/11:30am 12.8 12.0 9.6 81 1.6 ESE 4 6 2 3 1020.0 1020.1 0.0
27/11:00am 12.6 11.3 9.2 80 1.7 ENE 6 9 3 5 1020.4 1020.5 0.0
27/10:30am 13.1 11.6 9.0 76 2.1 E 7 9 4 5 1020.5 1020.6 0.0
27/10:00am 11.2 8.7 8.2 82 1.5 NE 11 15 6 8 1020.6 1020.7 0.0
27/09:30am 10.3 8.6 8.2 87 1.0 ENE 7 11 4 6 1020.9 1021.0 0.0
27/09:00am 8.7 6.3 6.8 88 0.9 ESE 9 15 5 8 1021.0 1021.1 0.0
27/08:30am 8.8 7.4 7.4 91 0.7 ESE 4 6 2 3 1021.0 1021.1 0.0
27/08:00am 7.8 6.3 6.6 92 0.6 E 4 6 2 3 1021.0 1021.1 0.0
27/07:30am 7.7 6.4 6.2 90 0.7 E 2 4 1 2 1021.0 1021.1 0.0
27/07:00am 7.3 5.5 5.6 89 0.8 ENE 4 6 2 3 1020.9 1021.0 0.0
27/06:30am 8.0 6.0 6.1 88 0.9 E 6 9 3 5 1020.7 1020.8 0.0
27/06:00am 8.2 6.2 6.3 88 0.9 E 6 7 3 4 1020.8 1020.9 0.0
27/05:30am 8.4 6.3 6.5 88 0.9 E 7 11 4 6 1020.9 1021.0 0.0
27/05:00am 8.5 6.0 6.6 88 0.9 ENE 9 13 5 7 1021.0 1021.1 0.0
27/04:30am 8.2 6.3 6.5 89 0.8 E 6 9 3 5 1021.0 1021.1 0.0
27/04:00am 8.3 6.1 6.4 88 0.9 ESE 7 11 4 6 1021.2 1021.3 0.0
27/03:30am 8.3 6.1 6.4 88 0.9 E 7 11 4 6 1021.4 1021.4 0.0
27/03:00am 8.3 6.4 6.8 90 0.7 ESE 6 9 3 5 1021.9 1021.9 0.0
27/02:30am 7.8 5.8 6.3 90 0.7 E 6 9 3 5 1022.2 1022.2 0.0
27/02:00am 8.2 6.4 7.0 92 0.6 E 6 11 3 6 1022.5 1022.5 0.0
27/01:30am 8.2 6.1 6.7 90 0.7 E 7 9 4 5 1022.7 1022.7 0.0
27/01:00am 7.7 5.5 6.3 91 0.6 ENE 7 9 4 5 1023.1 1023.2 0.0
27/12:30am 8.3 6.8 6.6 89 0.8 ESE 4 6 2 3 1023.6 1023.7 0.0
27/12:00am 8.7 7.2 7.0 89 0.8 E 4 6 2 3 1023.8 1023.9 0.0
 
Date/Time
EST
Temp
°C
App
Temp
°C
Dew
Point
Rel
Hum
%
Delta-T
°C
Wind Press
QNH
hPa
Press
MSL
hPa
Rain
since 9 am
mm
Dir
 
Spd
km/h
Gust
km/h
Spd
kts
Gust
kts
26/11:30pm 8.9 7.1 7.2 89 0.8 E 6 7 3 4 1023.9 1024.0 0.0
26/11:00pm 9.3 7.6 7.6 89 0.8 E 6 7 3 4 1024.0 1024.1 0.0
26/10:30pm 9.5 7.8 7.4 87 1.0 E 6 9 3 5 1024.1 1024.2 0.0
26/10:00pm 9.6 7.7 7.5 87 1.0 E 7 9 4 5 1024.2 1024.3 0.0
26/09:30pm 9.3 7.6 7.6 89 0.8 ESE 6 7 3 4 1024.3 1024.4 0.0
26/09:00pm 8.4 6.5 6.9 90 0.7 ESE 6 7 3 4 1024.6 1024.7 0.0
26/08:30pm 9.1 8.1 7.2 88 0.9 ESE 2 4 1 2 1024.7 1024.8 0.0
26/08:00pm 10.1 8.7 7.3 83 1.3 SE 4 6 2 3 1024.8 1024.9 0.0
26/07:30pm 10.2 8.8 7.3 82 1.4 E 4 6 2 3 1024.8 1024.9 0.0
26/07:00pm 10.4 8.6 7.3 81 1.5 E 6 9 3 5 1024.9 1025.0 0.0
26/06:30pm 10.8 8.9 6.9 77 1.9 E 6 9 3 5 1025.3 1025.4 0.0
26/06:00pm 11.4 9.4 7.1 75 2.1 E 7 9 4 5 1025.3 1025.4 0.0
26/05:30pm 11.4 10.1 7.5 77 1.9 ENE 4 6 2 3 1025.3 1025.4 0.0
26/05:00pm 12.0 10.3 7.5 74 2.2 ENE 6 7 3 4 1025.3 1025.4 0.0
26/04:30pm 12.4 10.6 7.1 70 2.6 ENE 6 7 3 4 1025.3 1025.4 0.0
26/04:00pm 12.9 11.0 6.5 65 3.1 E 6 9 3 5 1025.5 1025.6 0.0
26/03:30pm 13.6 11.8 7.2 65 3.1 ENE 6 9 3 5 1025.6 1025.7 0.0
26/03:00pm 13.8 11.9 6.7 62 3.4 E 6 7 3 4 1025.5 1025.6 0.0
26/02:30pm 14.3 12.5 7.1 62 3.5 ENE 6 9 3 5 1025.9 1026.0 0.0
26/02:00pm 15.3 13.5 7.3 59 4.0 E 6 9 3 5 1026.0 1026.1 0.0
26/01:30pm 15.2 13.6 6.5 56 4.3 ENE 4 7 2 4 1026.6 1026.7 0.0
26/01:00pm 13.5 11.9 7.9 69 2.8 ESE 6 9 3 5 1026.9 1027.0 0.0
26/12:30pm 13.5 12.5 9.0 74 2.3 ESE 4 6 2 3 1027.4 1027.5 0.0
26/12:00pm 11.9 10.6 7.8 76 2.0 ESE 4 6 2 3 1027.9 1028.0 0.0
26/11:30am 11.0 9.7 7.5 79 1.7 SE 4 6 2 3 1028.5 1028.6 0.0
26/11:00am 9.8 8.2 6.3 79 1.6 SSE 4 7 2 4 1029.3 1029.4 0.0
26/10:30am 9.6 8.5 6.9 83 1.3 E 2 4 1 2 1029.5 1029.6 0.0
26/10:00am 7.7 6.9 6.5 92 0.5 CALM 0 0 0 0 1029.6 1029.7 0.0
26/09:30am 5.9 4.9 5.8 99 0.0 CALM 0 0 0 0 1029.6 1029.7 0.0
26/09:00am 3.8 2.4 3.8 100 0.0 CALM 0 0 0 0 1029.6 1029.7 0.0
26/08:30am 1.7 0.0 1.6 99 0.0 CALM 0 0 0 0 1029.8 1029.9 0.0
26/08:00am 0.6 -1.3 0.5 99 0.0 CALM 0 0 0 0 1029.8 1029.9 0.0
26/07:30am -0.2 -2.2 -0.3 99 0.0 CALM 0 0 0 0 1029.6 1029.7 0.0
26/07:00am 0.5 -1.4 0.4 99 0.0 CALM 0 0 0 0 1029.6 1029.7 0.0
26/06:30am -0.2 -2.2 -0.3 99 0.0 CALM 0 0 0 0 1029.3 1029.4 0.0
26/06:00am 0.2 -1.8 0.1 99 0.0 CALM 0 0 0 0 1029.2 1029.2 0.0
26/05:30am 0.0 -2.0 -0.1 99 0.0 CALM 0 0 0 0 1029.2 1029.2 0.0
26/05:00am 1.0 -0.8 0.9 99 0.0 CALM 0 0 0 0 1029.2 1029.2 0.0
26/04:30am 0.4 -1.5 0.3 99 0.0 CALM 0 0 0 0 1029.2 1029.2 0.0
26/04:00am 1.0 -0.9 0.7 98 0.1 CALM 0 0 0 0 1028.9 1029.0 0.0
26/03:30am 1.7 0.0 1.6 99 0.0 CALM 0 0 0 0 1029.3 1029.4 0.0
26/03:00am 1.1 -0.8 0.8 98 0.1 CALM 0 0 0 0 1029.3 1029.4 0.0
26/02:30am 2.0 0.3 1.7 98 0.1 CALM 0 0 0 0 1029.7 1029.8 0.0
26/02:00am 2.3 0.6 2.0 98 0.1 CALM 0 0 0 0 1029.7 1029.8 0.0
26/01:30am 1.7 -0.1 1.3 97 0.2 CALM 0 0 0 0 1029.5 1029.6 0.0
26/01:00am 2.8 1.2 2.5 98 0.1 CALM 0 0 0 0 1029.6 1029.7 0.0
26/12:30am 3.4 1.9 3.0 97 0.2 CALM 0 0 0 0 1029.8 1029.9 0.0
26/12:00am 3.4 1.9 3.0 97 0.2 CALM 0 0 0 0 1029.9 1030.0 0.0
 
Date/Time
EST
Temp
°C
App
Temp
°C
Dew
Point
Rel
Hum
%
Delta-T
°C
Wind Press
QNH
hPa
Press
MSL
hPa
Rain
since 9 am
mm
Dir
 
Spd
km/h
Gust
km/h
Spd
kts
Gust
kts
25/11:30pm 3.6 2.1 3.0 96 0.2 CALM 0 0 0 0 1029.8 1029.9 0.0
25/11:00pm 4.0 2.6 3.4 96 0.2 CALM 0 0 0 0 1030.2 1030.3 0.0
25/10:30pm 4.8 3.5 4.2 96 0.3 CALM 0 0 0 0 1030.3 1030.4 0.0
25/10:00pm 4.9 3.6 4.2 95 0.3 CALM 0 0 0 0 1030.3 1030.4 0.0
25/09:30pm 5.8 3.9 5.1 95 0.3 ESE 4 4 2 2 1030.4 1030.5 0.0
25/09:00pm 5.6 4.4 4.6 93 0.4 CALM 0 0 0 0 1030.3 1030.4 0.0
25/08:30pm 5.7 4.4 4.2 90 0.6 CALM 0 0 0 0 1030.4 1030.5 0.0
25/08:00pm 7.3 6.3 5.4 88 0.8 CALM 0 0 0 0 1030.2 1030.3 0.0
25/07:30pm 7.7 6.6 5.3 85 1.1 CALM 0 0 0 0 1030.3 1030.4 0.0
25/07:00pm 8.5 6.8 6.1 85 1.1 NNE 4 4 2 2 1029.9 1030.0 0.0
25/06:30pm 8.9 7.9 5.6 80 1.5 CALM 0 0 0 0 1029.6 1029.7 0.0
25/06:00pm 10.4 9.6 6.5 77 1.8 CALM 0 0 0 0 1029.4 1029.5 0.0
25/05:30pm 10.9 10.1 6.6 75 2.0 CALM 0 0 0 0 1028.9 1029.0 0.0
25/05:00pm 12.2 11.1 6.9 70 2.5 WSW 2 4 1 2 1028.8 1028.9 0.0
25/04:30pm 13.6 12.1 6.7 63 3.3 WSW 4 6 2 3 1028.7 1028.8 0.0

Other Formats:

Comma delimited format used in spreadsheet applications
http://www.bom.gov.au/fwo/IDV60801/IDV60801.99806.axf

JavaScript Object Notation format (JSON) in row-major order
http://www.bom.gov.au/fwo/IDV60801/IDV60801.99806.json